Time;durP1;ratioP1;P1;durP2;ratioP2;P2;SDS_P1;SDS_P2;PMS_P1;PMS_P2;Temp;Humidity;BMP_temperature;BMP_pressure;BME280_temperature;BME280_humidity;BME280_pressure;Samples;Min_cycle;Max_cycle;Signal;HPM_P1;HPM_P2
2022/04/24 00:00:44;;;;;;;4.00;3.10;;;8.00;45.30;;;7.96;62.00;100214.03;4788976;29;20226;-68
2022/04/24 00:03:12;;;;;;;4.95;3.20;;;8.00;47.70;;;7.91;61.97;100215.66;4788434;29;20183;-69
2022/04/24 00:05:42;;;;;;;5.15;3.97;;;8.00;49.90;;;7.89;62.51;100217.75;4788753;29;20203;-71
2022/04/24 00:08:10;;;;;;;8.38;3.67;;;7.90;50.40;;;7.79;62.95;100210.03;4788720;29;20277;-72
2022/04/24 00:10:39;;;;;;;3.00;2.70;;;7.90;52.00;;;7.75;63.15;100206.06;4833804;24;20220;-66
2022/04/24 00:13:08;;;;;;;6.18;4.05;;;7.90;55.10;;;7.64;63.38;100203.97;4824460;29;20236;-65
2022/04/24 00:15:36;;;;;;;3.22;1.88;;;7.80;57.00;;;7.72;63.19;100201.94;4825106;29;20201;-66
2022/04/24 00:18:07;;;;;;;3.58;2.10;;;7.80;60.30;;;7.67;63.59;100206.25;4825691;29;20169;-65
2022/04/24 00:20:37;;;;;;;4.63;3.03;;;7.70;65.50;;;7.66;63.47;100207.28;4810586;29;20751;-66
2022/04/24 00:23:06;;;;;;;5.05;3.38;;;7.80;69.60;;;7.62;63.54;100209.53;4806739;29;20182;-65
2022/04/24 00:25:35;;;;;;;3.95;3.10;;;7.70;73.50;;;7.62;64.07;100211.41;4807865;29;20189;-65
2022/04/24 00:28:04;;;;;;;3.33;2.65;;;7.70;78.00;;;7.57;64.28;100208.47;4807355;29;20205;-64
2022/04/24 00:30:32;;;;;;;5.68;3.70;;;7.60;87.00;;;7.52;64.26;100202.84;4807398;29;20217;-66
2022/04/24 00:33:01;;;;;;;5.95;3.00;;;7.60;85.80;;;7.38;64.68;100196.56;4807353;29;20182;-67
2022/04/24 00:35:31;;;;;;;3.70;2.15;;;7.60;91.20;;;7.47;65.00;100202.63;4807645;29;20201;-65
2022/04/24 00:38:00;;;;;;;3.78;2.72;;;7.50;92.60;;;7.48;64.78;100193.50;4806826;29;20260;-65
2022/04/24 00:40:28;;;;;;;4.45;2.80;;;7.50;91.90;;;7.39;65.29;100191.00;4806685;29;20217;-65
2022/04/24 00:42:57;;;;;;;4.38;3.10;;;7.50;93.30;;;7.40;65.30;100187.28;4806598;29;20208;-66
2022/04/24 00:45:39;;;;;;;6.35;2.95;;;7.50;94.50;;;7.39;65.43;100188.31;4805589;29;20210;-66
2022/04/24 00:48:09;;;;;;;2.45;2.22;;;7.50;95.90;;;7.33;65.63;100185.56;4806434;29;20260;-65
2022/04/24 00:50:59;;;;;;;5.07;3.05;;;7.40;98.60;;;7.26;66.00;100180.13;4806273;29;20300;-65
2022/04/24 00:53:28;;;;;;;4.57;3.35;;;7.30;99.90;;;7.29;65.96;100178.91;4807144;29;20190;-65
2022/04/24 00:55:57;;;;;;;6.57;3.22;;;7.30;99.90;;;7.18;66.15;100188.38;4807231;29;20259;-67
2022/04/24 00:58:27;;;;;;;3.53;2.85;;;7.30;99.90;;;7.16;66.62;100184.22;4806869;29;20178;-66
2022/04/24 01:00:57;;;;;;;8.05;3.33;;;7.20;99.90;;;7.10;66.56;100180.47;4806701;29;20272;-64
2022/04/24 01:03:26;;;;;;;4.95;3.08;;;7.20;99.90;;;7.20;66.60;100169.34;4807021;29;20261;-64
2022/04/24 01:05:58;;;;;;;3.72;3.42;;;7.30;99.90;;;7.13;66.64;100168.47;4806786;29;20276;-66
2022/04/24 01:08:27;;;;;;;5.10;3.60;;;7.20;99.90;;;7.07;67.16;100175.44;4807027;29;20292;-65
2022/04/24 01:10:55;;;;;;;7.70;5.70;;;7.10;99.90;;;7.03;67.42;100171.50;4806884;29;20228;-66
2022/04/24 01:13:24;;;;;;;3.60;3.05;;;7.10;99.90;;;7.04;67.26;100175.88;4807337;29;20189;-65
2022/04/24 01:15:57;;;;;;;5.05;3.45;;;7.10;99.90;;;6.95;67.69;100171.66;4807380;29;20221;-63
2022/04/24 01:18:27;;;;;;;8.02;3.65;;;7.10;99.90;;;6.94;67.72;100170.81;4807545;29;20733;-65
2022/04/24 01:20:57;;;;;;;5.60;3.25;;;7.00;99.90;;;6.89;67.73;100161.69;4807804;29;20213;-66
2022/04/24 01:23:25;;;;;;;4.40;3.65;;;7.00;99.90;;;6.92;68.16;100164.00;4808420;29;20277;-65
2022/04/24 01:25:54;;;;;;;6.10;4.22;;;7.00;99.90;;;6.89;68.18;100162.50;4808975;29;20604;-64
2022/04/24 01:28:23;;;;;;;4.45;3.53;;;7.00;99.90;;;6.75;68.39;100155.38;4806877;29;20229;-66
2022/04/24 01:30:51;;;;;;;4.05;3.75;;;6.90;99.90;;;6.79;68.26;100155.81;4807011;29;20218;-64
2022/04/24 01:33:20;;;;;;;4.07;3.30;;;6.90;99.90;;;6.78;68.12;100154.13;4806701;29;20186;-64
2022/04/24 01:35:49;;;;;;;4.22;2.67;;;6.90;99.90;;;6.72;68.40;100157.63;4805401;29;20293;-67
2022/04/24 01:38:20;;;;;;;6.78;3.22;;;6.80;99.90;;;6.75;68.57;100154.53;4806608;29;20245;-65
2022/04/24 01:40:48;;;;;;;3.97;2.88;;;6.80;99.90;;;6.70;68.51;100146.22;4806021;29;20225;-65
2022/04/24 01:43:18;;;;;;;7.05;3.50;;;6.80;99.90;;;6.64;68.49;100152.38;4805608;29;20242;-66
2022/04/24 01:45:46;;;;;;;5.20;3.90;;;6.80;99.90;;;6.67;68.52;100152.00;4806203;29;20278;-65
2022/04/24 01:48:15;;;;;;;5.55;3.45;;;6.70;99.90;;;6.58;69.01;100145.94;4806201;29;20209;-66
2022/04/24 01:50:43;;;;;;;5.97;3.63;;;6.70;99.90;;;6.52;69.23;100147.56;4806283;29;20754;-66
2022/04/24 01:53:12;;;;;;;7.97;3.55;;;6.60;99.90;;;6.54;69.10;100147.34;4806819;29;20182;-65
2022/04/24 01:55:42;;;;;;;4.18;3.22;;;6.60;99.90;;;6.59;68.85;100141.38;4806352;29;20626;-64
2022/04/24 01:58:11;;;;;;;6.32;4.95;;;6.60;99.90;;;6.46;69.22;100140.25;4806486;29;20184;-66
2022/04/24 02:00:40;;;;;;;4.07;3.28;;;6.60;99.90;;;6.45;69.18;100146.66;4805749;29;20237;-66
2022/04/24 02:03:08;;;;;;;4.15;3.42;;;6.50;99.90;;;6.40;69.24;100138.34;4808339;29;20197;-65
2022/04/24 02:05:37;;;;;;;3.85;3.47;;;6.50;99.90;;;6.44;69.37;100142.28;4807946;29;20703;-65
2022/04/24 02:08:06;;;;;;;4.63;3.03;;;6.50;99.90;;;6.42;69.29;100141.69;4806636;29;20205;-65
2022/04/24 02:10:35;;;;;;;7.63;4.00;;;6.50;99.90;;;6.33;69.84;100145.53;4805282;29;20236;-66
2022/04/24 02:13:06;;;;;;;5.53;4.30;;;6.50;99.90;;;6.31;69.76;100144.88;4806671;29;20206;-65
2022/04/24 02:15:35;;;;;;;4.03;2.92;;;6.40;99.90;;;6.24;69.60;100149.38;4806974;29;20205;-64
2022/04/24 02:18:05;;;;;;;3.90;2.95;;;6.30;99.90;;;6.28;69.56;100141.75;4806354;29;20181;-65
2022/04/24 02:20:34;;;;;;;9.85;3.45;;;6.30;99.90;;;6.24;69.66;100135.94;4805145;29;20221;-66
2022/04/24 02:23:03;;;;;;;7.75;3.95;;;6.30;99.90;;;6.08;70.01;100144.25;4804775;29;20208;-64
2022/04/24 02:25:32;;;;;;;3.83;2.95;;;6.30;99.90;;;6.12;70.27;100148.19;4805301;29;20660;-66
2022/04/24 02:28:00;;;;;;;4.50;3.22;;;6.20;99.90;;;6.11;69.87;100143.84;4805058;29;20628;-65
2022/04/24 02:30:32;;;;;;;4.38;3.60;;;6.20;99.90;;;6.08;70.20;100136.19;4805552;29;20722;-66
2022/04/24 02:33:01;;;;;;;4.70;3.28;;;6.20;99.90;;;6.09;70.20;100132.47;4805754;29;20683;-66
2022/04/24 02:35:31;;;;;;;4.30;2.95;;;6.20;99.90;;;6.13;69.90;100131.06;4805275;29;20204;-66
2022/04/24 02:37:59;;;;;;;6.22;3.80;;;6.20;99.90;;;6.08;70.23;100128.97;4805225;29;20647;-66
2022/04/24 02:40:28;;;;;;;6.75;3.13;;;6.20;99.90;;;6.08;70.28;100126.28;4804775;29;20237;-68
2022/04/24 02:42:56;;;;;;;6.15;3.22;;;6.20;99.90;;;6.11;70.20;100130.41;4805276;29;20178;-65
2022/04/24 02:45:25;;;;;;;7.75;3.35;;;6.10;99.90;;;6.07;69.92;100129.13;4805361;29;20193;-65
2022/04/24 02:47:55;;;;;;;5.43;3.17;;;6.20;99.90;;;6.02;70.39;100134.25;4808318;29;20205;-66
2022/04/24 02:50:24;;;;;;;3.75;2.83;;;6.10;99.90;;;6.00;70.39;100121.00;4808983;29;20733;-65
2022/04/24 02:52:55;;;;;;;6.45;3.50;;;6.10;99.90;;;5.93;70.62;100119.28;4808824;29;20193;-65
2022/04/24 02:55:25;;;;;;;8.45;3.63;;;6.10;99.90;;;6.01;70.22;100116.47;4808503;29;20186;-65
2022/04/24 02:57:55;;;;;;;5.70;2.53;;;6.00;99.90;;;5.96;70.76;100111.66;4808447;29;20224;-66
2022/04/24 03:00:25;;;;;;;9.48;3.38;;;6.10;99.90;;;6.02;70.51;100113.59;4808819;29;20695;-66
2022/04/24 03:02:55;;;;;;;4.35;3.83;;;6.10;99.90;;;6.02;70.22;100107.41;4808324;29;20181;-66
2022/04/24 03:05:25;;;;;;;4.60;3.95;;;6.10;99.90;;;5.96;70.08;100100.09;4808378;29;20189;-66
2022/04/24 03:07:54;;;;;;;4.28;3.17;;;6.10;99.90;;;5.92;70.75;100102.34;4808163;29;20213;-65
2022/04/24 03:10:23;;;;;;;3.88;2.80;;;6.00;99.90;;;5.99;70.53;100099.72;4808057;29;20227;-65
2022/04/24 03:12:51;;;;;;;4.07;3.20;;;6.10;99.90;;;6.02;70.15;100096.66;4808030;29;20205;-66
2022/04/24 03:15:20;;;;;;;8.35;3.53;;;6.00;99.90;;;6.00;70.53;100096.03;4808308;29;20740;-65
2022/04/24 03:17:49;;;;;;;6.53;3.10;;;6.10;99.90;;;6.01;70.42;100092.28;4808249;29;20189;-66
2022/04/24 03:20:19;;;;;;;6.03;3.35;;;6.10;99.90;;;5.97;70.44;100086.50;4808402;29;20221;-65
2022/04/24 03:22:48;;;;;;;4.63;3.38;;;6.00;99.90;;;5.98;70.38;100092.69;4808268;29;20194;-65
2022/04/24 03:25:16;;;;;;;5.35;4.40;;;6.00;99.90;;;5.91;70.56;100084.56;4808129;29;20246;-65
2022/04/24 03:27:45;;;;;;;5.38;4.00;;;6.00;99.90;;;5.84;71.32;100074.75;4808021;29;20194;-64
2022/04/24 03:30:14;;;;;;;4.50;3.35;;;6.00;99.90;;;5.90;70.66;100074.03;4808081;29;20249;-65
2022/04/24 03:32:42;;;;;;;3.65;3.22;;;6.00;99.90;;;5.82;71.30;100068.72;4808138;29;20194;-65
2022/04/24 03:35:12;;;;;;;7.25;3.53;;;5.90;99.90;;;5.72;71.25;100073.59;4807646;29;20685;-65
2022/04/24 03:37:43;;;;;;;2.58;2.03;;;5.90;99.90;;;5.67;71.36;100066.94;4808375;29;20556;-65
2022/04/24 03:40:13;;;;;;;3.83;2.63;;;5.80;99.90;;;5.68;71.55;100075.81;4808162;29;20233;-65
2022/04/24 03:42:42;;;;;;;6.68;3.15;;;5.80;99.90;;;5.69;71.77;100078.34;4808156;29;20204;-66
2022/04/24 03:45:11;;;;;;;3.38;2.92;;;5.80;99.90;;;5.64;71.92;100074.56;4808490;29;20205;-65
2022/04/24 03:47:40;;;;;;;4.40;3.03;;;5.80;99.90;;;5.51;72.42;100075.25;4807933;29;20722;-65
2022/04/24 03:50:10;;;;;;;3.60;3.22;;;5.70;99.90;;;5.50;72.45;100076.25;4808207;29;20726;-65
2022/04/24 03:52:40;;;;;;;2.78;2.45;;;5.70;99.90;;;5.51;72.46;100074.41;4808369;29;20208;-64
2022/04/24 03:55:10;;;;;;;6.78;3.85;;;5.60;99.90;;;5.50;72.53;100081.63;4809526;29;20561;-66
2022/04/24 03:57:39;;;;;;;8.50;3.58;;;5.60;99.90;;;5.51;72.23;100083.31;4808569;29;20204;-65
2022/04/24 04:00:09;;;;;;;4.47;2.95;;;5.60;99.90;;;5.51;72.59;100085.97;4809356;29;20216;-65
2022/04/24 04:02:45;;;;;;;6.03;3.15;;;5.60;99.90;;;5.55;72.53;100079.22;4809352;29;20229;-66
2022/04/24 04:05:17;;;;;;;5.15;3.65;;;5.60;99.90;;;5.56;72.92;100086.25;4809339;29;20700;-65
2022/04/24 04:07:47;;;;;;;6.32;4.32;;;5.60;99.90;;;5.53;72.35;100089.28;4808062;29;20204;-66
2022/04/24 04:10:15;;;;;;;4.00;3.50;;;5.60;99.90;;;5.56;72.52;100072.81;4807227;29;20221;-65
2022/04/24 04:12:44;;;;;;;2.85;2.53;;;5.60;99.90;;;5.50;72.79;100084.31;4807177;29;20194;-65
2022/04/24 04:15:13;;;;;;;3.38;3.05;;;5.60;99.90;;;5.54;72.63;100074.84;4807116;29;20266;-65
2022/04/24 04:17:41;;;;;;;5.15;3.35;;;5.60;99.90;;;5.53;72.92;100073.19;4807305;29;20188;-65
2022/04/24 04:20:12;;;;;;;6.10;3.00;;;5.60;99.90;;;5.59;73.05;100083.19;4807418;29;20780;-65
2022/04/24 04:22:51;;;;;;;5.32;3.05;;;5.60;99.90;;;5.76;72.02;100086.44;4807414;29;20715;-65
2022/04/24 04:25:21;;;;;;;3.83;3.28;;;5.70;99.90;;;6.28;71.37;100093.38;4807077;29;20335;-66
2022/04/24 04:27:50;;;;;;;7.65;4.45;;;5.90;99.90;;;6.82;68.94;100088.22;4807213;29;20771;-65
2022/04/24 04:30:19;;;;;;;6.25;4.75;;;6.20;99.90;;;7.21;67.81;100095.66;4807081;29;20791;-66
2022/04/24 04:32:48;;;;;;;3.92;2.53;;;6.50;99.90;;;7.72;65.95;100096.91;4806992;29;20558;-66
2022/04/24 04:35:18;;;;;;;4.78;2.95;;;6.90;99.90;;;7.61;65.77;100094.78;4806943;29;20189;-66
2022/04/24 04:37:48;;;;;;;4.47;3.33;;;7.10;99.90;;;8.08;64.90;100093.88;4807066;29;20635;-66
2022/04/24 04:40:20;;;;;;;3.97;3.35;;;7.30;99.90;;;8.62;62.89;100095.56;4806641;29;20213;-65
2022/04/24 04:42:49;;;;;;;6.28;3.88;;;7.60;99.90;;;9.07;61.61;100081.16;4806675;29;20182;-65
2022/04/24 04:45:18;;;;;;;5.53;3.90;;;7.90;99.60;;;9.53;60.42;100085.56;4806665;29;20216;-66
2022/04/24 04:47:48;;;;;;;6.05;4.43;;;8.30;95.80;;;10.06;58.46;100082.56;4806967;29;20190;-66
2022/04/24 04:50:16;;;;;;;5.60;3.70;;;8.60;88.30;;;10.03;58.60;100086.50;4806500;29;20300;-66
2022/04/24 04:52:45;;;;;;;5.95;2.80;;;8.90;76.20;;;10.03;58.02;100090.03;4806383;29;20262;-66
2022/04/24 04:55:15;;;;;;;6.03;4.25;;;9.10;66.40;;;10.00;58.19;100087.78;4806761;29;20221;-66
2022/04/24 04:57:44;;;;;;;4.70;3.67;;;9.10;64.50;;;10.40;57.37;100085.66;4806470;29;20225;-66
2022/04/24 05:00:15;;;;;;;8.55;3.20;;;9.30;60.30;;;10.52;56.93;100083.06;4806608;29;20742;-66
2022/04/24 05:02:43;;;;;;;3.75;3.30;;;9.40;57.00;;;11.16;55.18;100092.63;4806321;29;20205;-66
2022/04/24 05:05:12;;;;;;;5.47;4.13;;;9.50;54.40;;;11.33;54.62;100090.97;4806223;29;20683;-66
2022/04/24 05:07:41;;;;;;;4.70;4.22;;;9.90;99.90;;;10.86;55.58;100081.69;4806335;29;20201;-65
2022/04/24 05:10:10;;;;;;;6.43;4.07;;;10.00;99.90;;;10.61;55.95;100097.94;4805869;29;20225;-66
2022/04/24 05:12:40;;;;;;;3.95;3.55;;;10.00;43.70;;;10.72;56.24;100093.69;4806706;29;20206;-66
2022/04/24 05:15:12;;;;;;;4.90;3.50;;;9.70;48.70;;;9.17;59.59;100094.22;4806567;29;20182;-66
2022/04/24 05:17:42;;;;;;;4.25;3.60;;;9.30;49.80;;;8.06;63.47;100095.94;4806134;29;20186;-66
2022/04/24 05:20:13;;;;;;;5.22;4.07;;;8.50;64.60;;;7.88;64.38;100093.00;4806098;29;20209;-66
2022/04/24 05:22:43;;;;;;;5.40;4.30;;;8.10;90.40;;;7.58;65.71;100099.75;4806137;29;20759;-66
2022/04/24 05:25:12;;;;;;;5.15;4.03;;;7.80;94.50;;;7.62;65.97;100093.75;4806205;29;20226;-66
2022/04/24 05:27:42;;;;;;;4.03;3.55;;;7.70;99.30;;;7.65;65.78;100095.22;4806193;29;20197;-66
2022/04/24 05:30:12;;;;;;;5.25;3.92;;;7.70;99.90;;;7.79;65.56;100099.63;4805855;29;20229;-67
2022/04/24 05:32:43;;;;;;;5.72;4.93;;;7.70;99.90;;;8.08;65.06;100098.44;4805750;29;20186;-65
2022/04/24 05:35:11;;;;;;;6.88;3.78;;;7.90;99.90;;;8.33;64.01;100098.69;4805984;29;20196;-65
2022/04/24 05:37:41;;;;;;;4.50;4.10;;;8.00;99.70;;;8.12;64.24;100105.91;4805865;29;20201;-66
2022/04/24 05:40:11;;;;;;;8.60;5.15;;;8.10;97.50;;;8.53;63.80;100096.81;4805790;29;20759;-64
2022/04/24 05:42:49;;;;;;;5.85;4.22;;;8.30;99.90;;;8.59;63.32;100101.38;4805575;29;20197;-66
2022/04/24 05:45:22;;;;;;;11.75;5.22;;;8.30;94.60;;;8.62;63.04;100100.94;4806252;29;20185;-65
2022/04/24 05:47:51;;;;;;;7.40;3.45;;;8.50;92.10;;;8.80;62.64;100097.63;4805917;29;20228;-66
2022/04/24 05:50:20;;;;;;;7.03;5.20;;;8.60;91.70;;;8.90;61.95;100085.38;4805796;29;20278;-66
2022/04/24 05:52:48;;;;;;;5.60;3.50;;;8.80;85.10;;;8.93;61.63;100093.03;4805790;29;20193;-65
2022/04/24 05:55:17;;;;;;;5.65;4.10;;;8.90;80.70;;;8.83;62.07;100097.19;4805794;29;20668;-65
2022/04/24 05:57:49;;;;;;;6.70;4.78;;;8.70;79.80;;;8.85;62.37;100100.53;4805637;29;20198;-65
2022/04/24 06:00:19;;;;;;;5.32;3.95;;;8.70;82.50;;;8.94;61.69;100094.69;4805504;29;20225;-67
2022/04/24 06:02:51;;;;;;;6.18;4.20;;;8.90;78.70;;;8.86;61.89;100105.69;4805734;29;20221;-65
2022/04/24 06:05:21;;;;;;;6.03;4.43;;;8.90;74.80;;;9.00;61.70;100098.44;4805324;29;20223;-65
2022/04/24 06:07:50;;;;;;;13.35;5.32;;;8.90;76.40;;;8.94;62.10;100094.69;4805457;29;20196;-65
2022/04/24 06:10:19;;;;;;;4.70;3.85;;;8.80;77.40;;;8.93;61.88;100087.63;4806365;24;20241;-72
2022/04/24 06:12:52;;;;;;;5.45;3.13;;;8.90;76.10;;;8.90;62.11;100092.63;4786467;29;20186;-71
2022/04/24 06:15:24;;;;;;;5.60;4.97;;;8.80;75.50;;;8.85;62.13;100095.97;4786224;29;20182;-72
2022/04/24 06:17:55;;;;;;;7.13;5.63;;;8.80;75.90;;;8.81;62.12;100096.59;4786127;29;20191;-72
2022/04/24 06:20:26;;;;;;;5.07;3.95;;;8.80;75.00;;;8.88;62.12;100100.09;4785452;29;20267;-72
2022/04/24 06:22:57;;;;;;;5.00;4.60;;;8.80;77.50;;;8.93;62.26;100094.91;4785396;29;20186;-71
2022/04/24 06:25:29;;;;;;;8.75;5.15;;;8.80;79.90;;;8.94;62.21;100083.91;4785972;29;20186;-71
2022/04/24 06:28:01;;;;;;;6.97;4.68;;;8.80;81.80;;;9.27;61.56;100089.19;4785925;29;20186;-72
2022/04/24 06:30:33;;;;;;;7.55;4.43;;;9.00;81.40;;;9.43;61.22;100082.50;4785867;29;20256;-73
2022/04/24 06:33:02;;;;;;;5.20;4.57;;;9.20;76.80;;;9.49;60.87;100087.84;4785731;29;20202;-72
2022/04/24 06:35:30;;;;;;;4.68;4.20;;;9.30;72.30;;;9.52;60.85;100087.44;4785882;29;20592;-72
2022/04/24 06:37:59;;;;;;;12.25;4.15;;;9.40;70.70;;;9.56;60.70;100085.97;4785656;29;20194;-73
2022/04/24 06:40:28;;;;;;;5.80;3.28;;;9.50;77.00;;;9.85;60.10;100076.44;4785703;29;20697;-72
2022/04/24 06:43:00;;;;;;;5.13;4.00;;;9.60;71.10;;;9.84;60.02;100076.66;4786145;29;20190;-72
2022/04/24 06:45:33;;;;;;;5.70;3.83;;;9.70;70.90;;;9.95;59.62;100076.81;4786035;29;20190;-72
2022/04/24 06:48:05;;;;;;;8.65;4.00;;;9.90;60.20;;;10.04;59.44;100077.38;4785829;29;20269;-72
2022/04/24 06:50:35;;;;;;;13.48;4.85;;;9.90;59.60;;;10.29;58.52;100080.13;4785705;29;20241;-70
2022/04/24 06:53:06;;;;;;;7.25;3.75;;;10.10;53.90;;;10.44;58.38;100069.81;4785662;29;20202;-72
2022/04/24 06:55:37;;;;;;;9.15;6.05;;;10.20;52.60;;;10.70;57.38;100072.25;4785431;29;20194;-72
2022/04/24 06:58:10;;;;;;;8.07;4.80;;;10.50;49.00;;;10.90;56.75;100064.78;4785296;29;20183;-72
2022/04/24 07:00:42;;;;;;;13.10;4.80;;;10.70;45.80;;;10.94;56.31;100069.75;4785379;29;20426;-71
2022/04/24 07:03:31;;;;;;;10.40;4.10;;;10.80;43.40;;;10.99;56.44;100073.44;4785284;30;20786;-71
2022/04/24 07:06:00;;;;;;;4.83;3.87;;;10.90;41.90;;;10.70;56.96;100064.16;4783989;29;20447;-72
2022/04/24 07:08:30;;;;;;;6.07;5.23;;;10.80;40.90;;;10.65;57.35;100063.19;4785295;29;20449;-71
2022/04/24 07:10:59;;;;;;;6.03;4.47;;;10.70;41.80;;;10.77;57.15;100062.22;4784954;29;20486;-72
2022/04/24 07:13:29;;;;;;;5.70;3.90;;;10.70;42.70;;;10.92;56.61;100061.84;4785134;29;20269;-72
2022/04/24 07:15:58;;;;;;;6.87;5.00;;;10.80;42.50;;;11.10;55.75;100063.75;4785207;29;20410;-72
2022/04/24 07:18:28;;;;;;;7.33;4.70;;;10.90;41.70;;;11.24;56.09;100065.25;4785332;29;20432;-72
2022/04/24 07:20:58;;;;;;;8.10;5.53;;;11.00;44.10;;;11.46;54.95;100063.72;4785176;29;20448;-71
2022/04/24 07:23:27;;;;;;;6.67;5.40;;;11.20;39.20;;;11.57;54.42;100054.81;4785306;29;20790;-72
2022/04/24 07:25:55;;;;;;;6.93;4.10;;;11.40;37.30;;;11.44;54.50;100051.44;4783496;30;20418;-71
2022/04/24 07:28:24;;;;;;;6.33;4.83;;;11.30;35.90;;;11.56;54.11;100055.88;4785327;29;20484;-72
2022/04/24 07:30:54;;;;;;;5.70;5.00;;;11.50;32.80;;;11.43;54.04;100047.91;4784864;29;20475;-72
2022/04/24 07:33:23;;;;;;;4.60;3.70;;;11.50;33.00;;;11.40;54.33;100048.38;4787772;29;20427;-72
2022/04/24 07:35:52;;;;;;;5.50;4.37;;;11.40;33.40;;;11.65;54.00;100043.69;4789375;29;20401;-72
2022/04/24 07:38:21;;;;;;;6.43;4.57;;;11.50;29.40;;;11.99;53.42;100041.34;4789224;29;20428;-71
2022/04/24 07:40:49;;;;;;;4.87;4.07;;;11.70;29.60;;;12.27;52.65;100033.38;4788761;29;20455;-72
2022/04/24 07:43:18;;;;;;;5.83;4.20;;;12.00;30.10;;;12.31;52.44;100034.53;4788403;29;20981;-71
2022/04/24 07:45:48;;;;;;;5.60;4.30;;;12.20;30.10;;;12.14;52.63;100033.59;4788394;29;20398;-72
2022/04/24 07:48:19;;;;;;;5.27;4.77;;;12.10;28.70;;;12.46;52.26;100026.78;4788875;29;20402;-72
2022/04/24 07:50:51;;;;;;;7.30;4.00;;;12.30;29.50;;;12.72;51.73;100024.66;4788283;29;20615;-72
2022/04/24 07:53:21;;;;;;;7.70;4.50;;;12.50;28.70;;;12.71;51.54;100017.56;4788042;29;20417;-72
2022/04/24 07:55:52;;;;;;;4.70;4.30;;;12.50;27.90;;;12.55;51.69;100017.22;4788271;29;20426;-72
2022/04/24 07:58:21;;;;;;;5.77;5.03;;;12.40;26.50;;;12.86;51.30;100020.63;4788208;29;20407;-72
2022/04/24 08:00:49;;;;;;;4.93;3.53;;;12.60;27.60;;;13.27;49.86;100012.28;4786678;29;20529;-72
2022/04/24 08:03:20;;;;;;;4.00;3.37;;;13.00;27.30;;;13.53;49.51;100010.09;4787824;29;20438;-70
2022/04/24 08:05:51;;;;;;;9.23;4.73;;;13.20;25.60;;;13.75;48.74;100008.31;4788026;29;20875;-71
2022/04/24 08:08:23;;;;;;;5.37;3.40;;;13.50;22.00;;;13.65;48.82;100005.44;4788237;29;20514;-72
2022/04/24 08:10:55;;;;;;;4.80;3.97;;;13.60;20.60;;;13.83;48.96;100002.50;4787433;29;20855;-72
2022/04/24 08:13:26;;;;;;;4.37;3.60;;;13.60;20.90;;;14.17;47.59;99998.75;4787473;29;20940;-72
2022/04/24 08:15:57;;;;;;;4.93;3.90;;;13.90;20.00;;;14.11;47.21;100002.44;4787528;29;20493;-72
2022/04/24 08:18:27;;;;;;;4.30;3.90;;;14.00;18.00;;;14.06;47.33;100005.06;4787583;29;20424;-70
2022/04/24 08:20:56;;;;;;;4.90;3.77;;;14.00;16.90;;;14.21;46.33;100001.78;4788010;29;20452;-70
2022/04/24 08:23:25;;;;;;;6.70;4.20;;;14.10;15.90;;;13.80;46.36;100000.25;4786870;29;20559;-71
2022/04/24 08:25:54;;;;;;;3.93;3.53;;;13.80;15.00;;;13.72;46.91;99997.94;4787849;29;20443;-70
2022/04/24 08:28:25;;;;;;;4.40;3.10;;;13.70;15.30;;;13.58;45.51;99994.69;4787219;30;20494;-69
2022/04/24 08:30:54;;;;;;;5.93;2.93;;;13.50;13.50;;;13.71;45.28;99997.09;4786772;29;20464;-69
2022/04/24 08:33:23;;;;;;;6.27;4.90;;;13.50;13.70;;;14.18;44.38;99994.13;4788461;29;20818;-70
2022/04/24 08:35:53;;;;;;;5.43;3.90;;;13.80;13.30;;;14.83;44.63;99991.56;4786525;29;20448;-71
2022/04/24 08:38:22;;;;;;;6.50;4.27;;;14.20;14.40;;;15.12;44.90;99992.22;4794717;29;21022;-71
2022/04/24 08:40:52;;;;;;;7.03;3.70;;;14.70;14.80;;;15.27;44.49;99988.88;4788656;29;20489;-70
2022/04/24 08:43:25;;;;;;;5.20;4.13;;;14.90;14.00;;;14.72;43.27;99992.50;4787831;29;20435;-70
2022/04/24 08:45:55;;;;;;;4.33;3.27;;;14.80;10.80;;;14.91;43.13;99987.63;4787442;29;20421;-71
2022/04/24 08:48:24;;;;;;;3.30;3.00;;;14.80;10.70;;;15.23;42.35;99983.94;4788096;29;20399;-71
2022/04/24 08:50:58;;;;;;;4.30;3.90;;;14.90;10.30;;;15.38;41.93;99979.72;4788187;29;20475;-70
2022/04/24 08:53:30;;;;;;;3.70;3.07;;;15.10;9.50;;;15.68;41.35;99991.00;4788259;29;20394;-70
2022/04/24 08:55:59;;;;;;;4.37;3.57;;;15.40;8.00;;;15.76;40.85;99987.81;4788990;29;20473;-71
2022/04/24 08:58:27;;;;;;;5.27;3.70;;;15.40;99.90;;;16.20;40.38;99979.47;4789327;29;20399;-71
2022/04/24 09:00:56;;;;;;;6.97;4.50;;;15.70;99.90;;;16.30;40.79;99979.53;4789753;29;20426;-71
2022/04/24 09:03:25;;;;;;;4.87;4.37;;;15.90;99.90;;;15.71;42.77;99995.13;4788504;29;20406;-70
2022/04/24 09:05:55;;;;;;;5.97;4.90;;;15.80;99.90;;;15.30;44.02;99989.16;4788518;29;20427;-70
2022/04/24 09:08:25;;;;;;;6.27;4.13;;;15.40;99.90;;;15.37;44.00;99987.09;4787903;29;20929;-70
2022/04/24 09:11:14;;;;;;;4.10;3.47;;;15.30;31.50;;;15.43;44.03;99987.97;4787813;29;20454;-71
2022/04/24 09:16:35;;;;;;;6.00;4.37;;;15.30;35.90;;;15.41;44.28;99985.50;4785534;30;20871;-71
2022/04/24 09:19:15;;;;;;;5.57;5.00;;;15.40;51.30;;;15.28;44.93;99985.06;4786025;29;20446;-75
2022/04/24 09:21:45;;;;;;;3.53;3.20;;;15.20;99.90;;;15.55;43.73;99986.75;4786879;29;20459;-71
2022/04/24 09:24:14;;;;;;;3.97;3.67;;;15.30;99.90;;;15.45;42.59;99986.63;4786406;29;20445;-70
2022/04/24 09:26:54;;;;;;;5.07;4.60;;;15.40;99.90;;;15.26;42.64;99979.03;4786265;29;20470;-71
2022/04/24 09:29:24;;;;;;;4.73;3.60;;;15.20;99.90;;;15.22;42.91;99989.63;4786779;29;20436;-71
2022/04/24 09:31:53;;;;;;;4.00;3.27;;;15.20;99.90;;;15.22;42.90;99998.63;4786490;29;20513;-70
2022/04/24 09:34:22;;;;;;;4.70;3.93;;;15.10;99.90;;;15.41;42.70;99990.13;4786743;29;20432;-70
2022/04/24 09:37:03;;;;;;;5.03;4.27;;;15.20;99.90;;;15.49;43.65;99992.41;4787018;29;20406;-71
2022/04/24 09:39:34;;;;;;;3.10;2.80;;;15.30;99.90;;;15.50;44.30;99983.13;4786784;29;20834;-71
2022/04/24 09:42:05;;;;;;;4.93;4.10;;;15.30;99.90;;;15.58;44.77;99996.34;4786705;29;20497;-71
2022/04/24 09:44:42;;;;;;;6.37;4.87;;;15.40;99.90;;;15.73;44.28;99982.88;4785147;30;21021;-71
2022/04/24 09:47:30;;;;;;;5.33;4.17;;;15.50;99.90;;;15.75;44.34;99977.16;4785356;29;20789;-71
2022/04/24 09:50:02;;;;;;;5.40;4.10;;;15.60;99.90;;;15.84;43.37;99990.06;4786454;29;20452;-71
2022/04/24 09:52:35;;;;;;;6.20;4.50;;;15.60;82.40;;;15.92;43.70;99984.16;4786353;29;20466;-71
2022/04/24 09:55:04;;;;;;;5.50;3.83;;;15.80;72.50;;;15.89;43.36;99989.28;4786635;29;20428;-70
2022/04/24 09:57:33;;;;;;;4.40;4.00;;;15.80;83.30;;;15.91;42.72;99990.69;4786157;29;20773;-71
2022/04/24 10:00:05;;;;;;;7.00;4.90;;;15.80;99.90;;;15.95;42.77;99983.63;4787392;29;20520;-70
2022/04/24 10:02:36;;;;;;;7.73;4.63;;;15.80;99.90;;;16.01;42.35;99989.94;4786933;29;20490;-71
2022/04/24 10:05:08;;;;;;;5.50;4.13;;;15.90;99.90;;;16.27;42.02;99977.31;4785190;30;20417;-72
2022/04/24 10:07:39;;;;;;;5.23;4.73;;;16.00;55.80;;;16.22;42.36;99977.28;4786946;29;20552;-72
2022/04/24 10:10:09;;;;;;;5.80;5.10;;;16.00;54.00;;;16.09;42.23;99984.84;4787031;29;20450;-71
2022/04/24 10:12:38;;;;;;;6.07;5.07;;;16.00;55.20;;;16.29;41.97;99976.00;4786511;29;20463;-70
2022/04/24 10:15:13;;;;;;;23.93;17.00;;;16.00;63.20;;;16.28;42.41;99977.06;4786477;29;20438;-71
2022/04/24 10:18:01;;;;;;;9.23;7.13;;;16.10;63.60;;;16.35;42.08;99979.59;4786367;29;20834;-72
2022/04/24 10:20:47;;;;;;;9.37;8.20;;;16.20;68.90;;;16.37;42.73;99982.84;4785958;29;20473;-72
2022/04/24 10:23:29;;;;;;;6.17;5.50;;;16.30;78.90;;;16.17;43.20;99974.53;4786549;29;20443;-70
2022/04/24 10:25:58;;;;;;;5.80;4.80;;;16.10;73.80;;;16.08;43.70;99980.44;4786385;29;20494;-70
2022/04/24 10:28:37;;;;;;;7.17;4.70;;;16.10;62.00;;;16.12;42.38;99977.22;4786548;29;20560;-70
2022/04/24 10:31:09;;;;;;;5.87;5.10;;;16.00;62.20;;;16.31;41.65;99984.75;4787004;29;20530;-71
2022/04/24 10:33:40;;;;;;;7.10;6.00;;;16.10;61.60;;;16.00;42.20;99970.03;4787367;29;20788;-70
2022/04/24 10:36:15;;;;;;;10.70;8.80;;;16.00;62.50;;;16.24;40.76;99966.94;4787913;29;20428;-70
2022/04/24 10:38:53;;;;;;;12.53;7.70;;;16.00;67.90;;;16.02;42.51;99965.09;4786969;29;20405;-71